createdAt,value
2019-06-18T00:00:47.201Z,0
2019-06-18T00:01:46.252Z,0
2019-06-18T00:02:45.883Z,0
2019-06-18T00:03:45.766Z,0
2019-06-18T00:04:46.265Z,0
2019-06-18T00:05:56.240Z,0
2019-06-18T00:06:55.417Z,0
2019-06-18T00:07:57.132Z,0
2019-06-18T00:08:54.532Z,0
2019-06-18T00:10:01.226Z,0
2019-06-18T00:11:03.500Z,0
2019-06-18T00:12:07.741Z,0
2019-06-18T00:13:11.242Z,0
2019-06-18T00:14:02.427Z,0
2019-06-18T00:15:01.786Z,0
2019-06-18T00:16:12.748Z,0
2019-06-18T00:17:02.943Z,0
2019-06-18T00:18:02.794Z,0
2019-06-18T00:19:01.981Z,0
2019-06-18T00:20:01.315Z,0
2019-06-18T00:21:02.650Z,0
2019-06-18T00:22:03.516Z,0
2019-06-18T00:23:14.569Z,0
2019-06-18T00:28:16.078Z,0
2019-06-18T00:28:42.606Z,0
2019-06-18T00:29:42.930Z,0
2019-06-18T00:30:50.523Z,0
2019-06-18T00:31:41.916Z,0
2019-06-18T00:32:45.811Z,0
2019-06-18T00:33:42.392Z,0
2019-06-18T00:34:47.120Z,0
2019-06-18T00:35:42.646Z,0
2019-06-18T00:36:46.064Z,0
2019-06-18T00:37:48.077Z,0
2019-06-18T00:38:43.110Z,0
2019-06-18T00:39:41.771Z,0
2019-06-18T00:40:49.346Z,0
2019-06-18T00:41:48.270Z,0
2019-06-18T00:42:44.006Z,0
2019-06-18T00:43:42.917Z,0
2019-06-18T00:44:42.030Z,0
2019-06-18T00:45:57.295Z,0
2019-06-18T00:46:41.987Z,0
2019-06-18T00:47:42.656Z,0
2019-06-18T00:48:42.600Z,0
2019-06-18T00:49:39.934Z,0
2019-06-18T00:50:42.918Z,0
2019-06-18T00:51:43.279Z,0
2019-06-18T00:52:42.268Z,0
2019-06-18T00:53:46.593Z,0
2019-06-18T00:54:42.557Z,0
2019-06-18T00:55:39.930Z,0
2019-06-18T00:56:38.095Z,0
2019-06-18T00:57:41.960Z,0
2019-06-18T00:58:42.330Z,0
2019-06-18T00:59:37.009Z,0
2019-06-18T01:00:44.196Z,0
2019-06-18T01:01:43.555Z,0
2019-06-18T01:02:46.917Z,0
2019-06-18T01:03:43.651Z,0
2019-06-18T01:04:43.691Z,0
2019-06-18T01:05:43.513Z,0
2019-06-18T01:06:43.660Z,0
2019-06-18T01:07:43.838Z,0
2019-06-18T01:08:43.722Z,0
2019-06-18T01:09:42.849Z,0
2019-06-18T01:10:43.417Z,0
2019-06-18T01:11:44.258Z,0
2019-06-18T01:12:39.200Z,0
2019-06-18T01:13:43.952Z,0
2019-06-18T01:14:47.220Z,0
2019-06-18T01:15:42.366Z,0
2019-06-18T01:16:46.703Z,0
2019-06-18T01:17:47.509Z,0
2019-06-18T01:18:43.956Z,0
2019-06-18T01:19:42.601Z,0
2019-06-18T01:20:46.987Z,0
2019-06-18T01:21:47.049Z,0
2019-06-18T01:22:44.316Z,0
2019-06-18T01:23:42.916Z,0
2019-06-18T01:24:42.783Z,0
2019-06-18T01:25:43.630Z,0
2019-06-18T01:26:42.916Z,0
2019-06-18T01:27:43.117Z,0
2019-06-18T01:28:44.916Z,0
2019-06-18T01:29:43.084Z,0
2019-06-18T01:30:43.672Z,0
2019-06-18T01:31:43.474Z,0
2019-06-18T01:32:44.883Z,0
2019-06-18T01:33:43.136Z,0
2019-06-18T01:34:47.648Z,0
2019-06-18T01:35:43.244Z,0
2019-06-18T01:36:45.344Z,0
2019-06-18T01:37:44.276Z,0
2019-06-18T01:38:43.343Z,0
2019-06-18T01:39:42.340Z,0
2019-06-18T01:40:43.621Z,0
2019-06-18T01:41:43.073Z,0
2019-06-18T01:42:43.257Z,0
2019-06-18T01:43:45.187Z,0
2019-06-18T01:44:43.657Z,0
2019-06-18T01:45:44.095Z,0
2019-06-18T01:46:56.974Z,0
2019-06-18T01:47:44.859Z,0
2019-06-18T01:48:44.167Z,0
2019-06-18T01:49:38.590Z,0
2019-06-18T01:50:38.921Z,0
2019-06-18T01:51:44.196Z,0
2019-06-18T01:52:42.612Z,0
2019-06-18T01:53:43.382Z,0
2019-06-18T01:54:42.678Z,0
2019-06-18T01:55:38.791Z,0
2019-06-18T01:56:38.303Z,0
2019-06-18T01:57:40.460Z,0
2019-06-18T01:58:38.696Z,0
2019-06-18T01:59:38.427Z,0
2019-06-18T02:00:48.807Z,0
2019-06-18T02:01:43.891Z,0
2019-06-18T02:02:44.652Z,0
2019-06-18T02:03:44.472Z,0
2019-06-18T02:04:48.674Z,0
2019-06-18T02:05:45.500Z,0
2019-06-18T02:06:44.970Z,0
2019-06-18T02:07:47.932Z,0
2019-06-18T02:08:44.317Z,0
2019-06-18T02:09:43.734Z,0
2019-06-18T02:10:36.855Z,0
2019-06-18T02:11:29.076Z,0
2019-06-18T02:12:32.222Z,0
2019-06-18T02:13:28.730Z,0
2019-06-18T02:14:29.017Z,0
2019-06-18T02:15:29.487Z,0
2019-06-18T02:16:33.086Z,0
2019-06-18T02:17:32.997Z,0
2019-06-18T02:18:28.754Z,0
2019-06-18T02:19:32.382Z,0
2019-06-18T02:20:28.662Z,0
2019-06-18T02:21:28.996Z,0
2019-06-18T02:22:32.652Z,0
2019-06-18T02:23:32.857Z,0
2019-06-18T02:24:28.333Z,0
2019-06-18T02:25:32.496Z,0
2019-06-18T02:26:27.852Z,0
2019-06-18T02:27:28.576Z,0
2019-06-18T02:28:33.064Z,0
2019-06-18T02:29:28.612Z,0
2019-06-18T02:30:34.222Z,0
2019-06-18T02:31:29.834Z,0
2019-06-18T02:32:28.704Z,0
2019-06-18T02:33:29.320Z,0
2019-06-18T02:34:33.071Z,0
2019-06-18T02:35:28.301Z,0
2019-06-18T02:36:28.079Z,0
2019-06-18T02:37:28.146Z,0
2019-06-18T02:38:28.826Z,0
2019-06-18T02:39:32.633Z,0
2019-06-18T02:40:28.850Z,0
2019-06-18T02:41:32.656Z,0
2019-06-18T02:42:28.586Z,0
2019-06-18T02:43:32.282Z,0
2019-06-18T02:44:28.852Z,0
2019-06-18T02:45:29.476Z,0
2019-06-18T02:46:28.060Z,0
2019-06-18T02:47:28.768Z,0
2019-06-18T02:48:28.570Z,0
2019-06-18T02:49:32.250Z,0
2019-06-18T02:50:27.924Z,0
2019-06-18T02:51:28.245Z,0
2019-06-18T02:52:28.264Z,0
2019-06-18T02:53:43.037Z,0
2019-06-18T02:54:28.022Z,0
2019-06-18T02:55:28.846Z,0
2019-06-18T02:56:33.174Z,0
2019-06-18T02:57:28.367Z,0
2019-06-18T02:58:28.249Z,0
2019-06-18T02:59:33.221Z,0
2019-06-18T03:00:28.496Z,0
2019-06-18T03:01:28.031Z,0
2019-06-18T03:02:28.733Z,0
2019-06-18T03:03:27.653Z,0
2019-06-18T03:04:28.805Z,0
2019-06-18T03:05:32.475Z,0
2019-06-18T03:06:27.609Z,0
2019-06-18T03:07:27.938Z,0
2019-06-18T03:08:28.062Z,0
2019-06-18T03:09:32.625Z,0
2019-06-18T03:10:32.465Z,0
2019-06-18T03:11:27.961Z,0
2019-06-18T03:12:28.070Z,0
2019-06-18T03:13:28.693Z,0
2019-06-18T03:14:28.332Z,0
2019-06-18T03:15:32.455Z,0
2019-06-18T03:16:29.830Z,0
2019-06-18T03:17:48.273Z,0
2019-06-18T03:18:28.864Z,0
2019-06-18T03:19:28.471Z,0
2019-06-18T03:20:28.103Z,0
2019-06-18T03:21:27.886Z,0
2019-06-18T03:22:28.486Z,0
2019-06-18T03:23:42.603Z,0
2019-06-18T03:24:28.485Z,0
2019-06-18T03:25:28.533Z,0
2019-06-18T03:26:28.008Z,0
2019-06-18T03:27:28.519Z,0
2019-06-18T03:28:32.986Z,0
2019-06-18T03:29:28.724Z,0
2019-06-18T03:30:34.113Z,0
2019-06-18T03:31:34.861Z,0
2019-06-18T03:32:34.688Z,0
2019-06-18T03:33:36.914Z,0
2019-06-18T03:34:35.368Z,0
2019-06-18T03:35:27.936Z,0
2019-06-18T03:36:28.093Z,0
2019-06-18T03:37:28.366Z,0
2019-06-18T03:38:27.995Z,0
2019-06-18T03:39:28.051Z,0
2019-06-18T03:40:32.796Z,0
2019-06-18T03:41:32.149Z,0
2019-06-18T03:42:28.314Z,0
2019-06-18T03:43:28.521Z,0
2019-06-18T03:44:27.795Z,0
2019-06-18T03:45:28.886Z,0
2019-06-18T03:46:28.578Z,0
2019-06-18T03:47:49.625Z,0
2019-06-18T03:48:28.575Z,0
2019-06-18T03:49:28.089Z,0
2019-06-18T03:50:32.511Z,0
2019-06-18T03:51:28.534Z,0
2019-06-18T03:52:28.647Z,0
2019-06-18T03:53:38.399Z,0
2019-06-18T03:54:33.515Z,0
2019-06-18T03:55:29.038Z,0
2019-06-18T03:56:27.749Z,0
2019-06-18T03:57:28.083Z,0
2019-06-18T03:58:32.507Z,0
2019-06-18T03:59:32.649Z,0
2019-06-18T04:00:28.647Z,0
2019-06-18T04:01:28.650Z,0
2019-06-18T04:02:28.494Z,0
2019-06-18T04:03:28.525Z,5
2019-06-18T04:04:28.844Z,5
2019-06-18T04:05:33.068Z,5
2019-06-18T04:06:28.020Z,5
2019-06-18T04:07:32.706Z,5
2019-06-18T04:08:34.918Z,5
2019-06-18T04:09:29.798Z,5
2019-06-18T04:10:28.759Z,5
2019-06-18T04:11:32.572Z,5
2019-06-18T04:12:35.467Z,5
2019-06-18T04:13:28.476Z,5
2019-06-18T04:14:28.872Z,5
2019-06-18T04:15:33.086Z,5
2019-06-18T04:16:32.620Z,5
2019-06-18T04:17:28.226Z,5
2019-06-18T04:18:28.119Z,5
2019-06-18T04:19:27.951Z,5
2019-06-18T04:20:32.395Z,5
2019-06-18T04:21:28.402Z,5
2019-06-18T04:22:28.996Z,5
2019-06-18T04:23:38.082Z,5
2019-06-18T04:24:28.177Z,5
2019-06-18T04:25:29.949Z,5
2019-06-18T04:26:28.520Z,5
2019-06-18T04:27:28.936Z,5
2019-06-18T04:28:32.742Z,5
2019-06-18T04:29:33.249Z,5
2019-06-18T04:30:32.714Z,5
2019-06-18T04:31:32.934Z,5
2019-06-18T04:32:35.808Z,5
2019-06-18T04:33:32.675Z,5
2019-06-18T04:34:28.639Z,5
2019-06-18T04:35:27.863Z,10
2019-06-18T04:36:28.727Z,10
2019-06-18T04:37:29.231Z,10
2019-06-18T04:38:29.231Z,10
2019-06-18T04:39:28.377Z,10
2019-06-18T04:40:32.157Z,10
2019-06-18T04:41:32.653Z,10
2019-06-18T04:42:28.213Z,10
2019-06-18T04:43:28.390Z,10
2019-06-18T04:44:32.521Z,10
2019-06-18T04:45:29.282Z,10
2019-06-18T04:46:28.776Z,10
2019-06-18T04:47:32.493Z,10
2019-06-18T04:48:38.616Z,10
2019-06-18T04:49:28.225Z,10
2019-06-18T04:50:28.005Z,10
2019-06-18T04:51:32.615Z,10
2019-06-18T04:52:29.138Z,10
2019-06-18T04:53:39.028Z,10
2019-06-18T04:54:29.066Z,10
2019-06-18T04:55:28.309Z,10
2019-06-18T04:56:33.054Z,10
2019-06-18T04:57:29.001Z,15
2019-06-18T04:58:28.248Z,15
2019-06-18T04:59:28.608Z,15
2019-06-18T05:00:30.350Z,15
2019-06-18T05:01:32.784Z,15
2019-06-18T05:02:28.056Z,15
2019-06-18T05:03:28.815Z,15
2019-06-18T05:04:28.103Z,15
2019-06-18T05:05:32.225Z,15
2019-06-18T05:06:33.076Z,15
2019-06-18T05:07:28.553Z,15
2019-06-18T05:08:32.975Z,15
2019-06-18T05:09:29.019Z,15
2019-06-18T05:10:32.701Z,15
2019-06-18T05:11:28.893Z,20
2019-06-18T05:12:28.356Z,20
2019-06-18T05:13:33.048Z,20
2019-06-18T05:14:28.418Z,20
2019-06-18T05:15:32.771Z,20
2019-06-18T05:16:28.488Z,20
2019-06-18T05:17:32.554Z,20
2019-06-18T05:18:49.450Z,20
2019-06-18T05:19:33.242Z,20
2019-06-18T05:20:28.945Z,20
2019-06-18T05:21:32.343Z,20
2019-06-18T05:22:28.826Z,20
2019-06-18T05:23:43.000Z,20
2019-06-18T05:24:28.445Z,20
2019-06-18T05:25:33.226Z,20
2019-06-18T05:26:29.173Z,20
2019-06-18T05:27:28.881Z,20
2019-06-18T05:28:33.035Z,20
2019-06-18T05:29:28.776Z,25
2019-06-18T05:30:32.848Z,25
2019-06-18T05:31:28.474Z,25
2019-06-18T05:32:32.595Z,25
2019-06-18T05:33:28.824Z,25
2019-06-18T05:34:32.658Z,20
2019-06-18T05:35:32.868Z,20
2019-06-18T05:36:28.848Z,20
2019-06-18T05:37:32.900Z,20
2019-06-18T05:38:28.656Z,20
2019-06-18T05:39:32.889Z,20
2019-06-18T05:40:28.273Z,20
2019-06-18T05:41:32.727Z,20
2019-06-18T05:42:28.434Z,20
2019-06-18T05:43:32.709Z,20
2019-06-18T05:44:31.566Z,25
2019-06-18T05:45:33.034Z,25
2019-06-18T05:46:32.749Z,25
2019-06-18T05:47:28.861Z,25
2019-06-18T05:48:28.501Z,25
2019-06-18T05:49:28.524Z,25
2019-06-18T05:50:33.120Z,25
2019-06-18T05:51:33.164Z,25
2019-06-18T05:52:47.782Z,25
2019-06-18T05:53:32.830Z,25
2019-06-18T05:54:28.259Z,25
2019-06-18T05:55:32.862Z,25
2019-06-18T05:56:28.759Z,25
2019-06-18T05:57:32.785Z,25
2019-06-18T05:58:28.310Z,25
2019-06-18T05:59:32.203Z,25
2019-06-18T06:00:29.146Z,25
2019-06-18T06:01:28.620Z,30
2019-06-18T06:02:32.642Z,30
2019-06-18T06:03:28.705Z,30
2019-06-18T06:04:28.547Z,30
2019-06-18T06:05:32.963Z,35
2019-06-18T06:06:32.767Z,35
2019-06-18T06:07:32.710Z,35
2019-06-18T06:08:32.891Z,35
2019-06-18T06:09:32.621Z,35
2019-06-18T06:10:28.154Z,35
2019-06-18T06:11:28.087Z,35
2019-06-18T06:12:32.530Z,35
2019-06-18T06:13:28.669Z,35
2019-06-18T06:14:32.970Z,35
2019-06-18T06:15:32.835Z,35
2019-06-18T06:16:28.337Z,35
2019-06-18T06:17:32.813Z,35
2019-06-18T06:18:28.573Z,35
2019-06-18T06:19:32.469Z,35
2019-06-18T06:20:28.967Z,35
2019-06-18T06:21:29.257Z,35
2019-06-18T06:22:32.326Z,35
2019-06-18T06:23:28.139Z,35
2019-06-18T06:24:32.753Z,35
2019-06-18T06:25:34.615Z,40
2019-06-18T06:26:33.202Z,35
2019-06-18T06:27:29.074Z,40
2019-06-18T06:28:32.573Z,40
2019-06-18T06:29:32.756Z,40
2019-06-18T06:30:28.411Z,40
2019-06-18T06:31:28.632Z,40
2019-06-18T06:32:28.788Z,40
2019-06-18T06:33:28.909Z,45
2019-06-18T06:34:32.392Z,45
2019-06-18T06:35:32.610Z,50
2019-06-18T06:36:28.453Z,55
2019-06-18T06:37:32.772Z,55
2019-06-18T06:38:28.421Z,65
2019-06-18T06:39:30.548Z,70
2019-06-18T06:40:31.054Z,75
2019-06-18T06:41:32.746Z,75
2019-06-18T06:42:28.606Z,90
2019-06-18T06:43:32.856Z,150
2019-06-18T06:44:32.971Z,250
2019-06-18T06:45:32.651Z,295
2019-06-18T06:46:33.118Z,305
2019-06-18T06:47:32.805Z,305
2019-06-18T06:48:32.903Z,315
2019-06-18T06:49:48.428Z,330
2019-06-18T06:50:32.822Z,335
2019-06-18T06:51:28.692Z,345
2019-06-18T06:52:28.404Z,350
2019-06-18T06:53:28.753Z,350
2019-06-18T06:54:33.031Z,340
2019-06-18T06:55:29.342Z,320
2019-06-18T06:56:32.864Z,325
2019-06-18T06:57:28.948Z,315
2019-06-18T06:58:43.385Z,320
2019-06-18T06:59:29.263Z,325
2019-06-18T07:00:33.032Z,330
2019-06-18T07:01:32.647Z,330
2019-06-18T07:02:29.108Z,340
2019-06-18T07:03:33.214Z,350
2019-06-18T07:04:33.804Z,360
2019-06-18T07:05:33.052Z,360
2019-06-18T07:06:32.659Z,350
2019-06-18T07:07:29.386Z,335
2019-06-18T07:08:32.548Z,320
2019-06-18T07:09:33.162Z,310
2019-06-18T07:10:34.047Z,295
2019-06-18T07:11:33.625Z,290
2019-06-18T07:12:29.281Z,280
2019-06-18T07:13:30.297Z,270
2019-06-18T07:14:29.250Z,265
2019-06-18T07:15:28.817Z,260
2019-06-18T07:16:28.334Z,250
2019-06-18T07:17:33.232Z,240
2019-06-18T07:18:30.257Z,230
2019-06-18T07:19:33.900Z,220
2019-06-18T07:20:28.606Z,220
2019-06-18T07:21:32.874Z,205
2019-06-18T07:22:33.313Z,200
2019-06-18T07:23:32.978Z,190
2019-06-18T07:24:28.510Z,180
2019-06-18T07:29:46.549Z,145
2019-06-18T07:29:58.876Z,145
2019-06-18T07:30:58.883Z,145
2019-06-18T07:31:58.627Z,145
2019-06-18T07:33:02.620Z,150
2019-06-18T07:33:58.698Z,155
2019-06-18T07:34:59.008Z,155
2019-06-18T07:35:58.302Z,160
2019-06-18T07:36:58.126Z,160
2019-06-18T07:37:58.619Z,160
2019-06-18T07:38:58.142Z,160
2019-06-18T07:39:58.019Z,160
2019-06-18T07:40:59.105Z,155
2019-06-18T07:41:58.799Z,150
2019-06-18T07:43:02.861Z,145
2019-06-18T07:43:58.810Z,140
2019-06-18T07:45:04.517Z,135
2019-06-18T07:45:58.511Z,130
2019-06-18T07:46:58.873Z,115
2019-06-18T07:47:58.402Z,105
2019-06-18T07:49:02.618Z,90
2019-06-18T07:50:24.737Z,85
2019-06-18T07:51:03.670Z,85
2019-06-18T07:52:02.727Z,85
2019-06-18T07:53:02.778Z,85
2019-06-18T07:54:12.492Z,85
2019-06-18T07:54:58.258Z,85
2019-06-18T07:56:02.557Z,85
2019-06-18T07:57:03.437Z,85
2019-06-18T07:57:59.263Z,85
2019-06-18T07:58:58.733Z,85
2019-06-18T08:00:00.194Z,85
2019-06-18T08:00:59.118Z,85
2019-06-18T08:02:05.959Z,85
2019-06-18T08:03:03.116Z,90
2019-06-18T08:03:59.137Z,90
2019-06-18T08:05:03.426Z,90
2019-06-18T08:05:58.245Z,90
2019-06-18T08:07:01.583Z,90
2019-06-18T08:08:02.521Z,90
2019-06-18T08:08:58.577Z,90
2019-06-18T08:10:03.455Z,95
2019-06-18T08:10:58.835Z,95
2019-06-18T08:12:03.360Z,95
2019-06-18T08:13:02.375Z,95
2019-06-18T08:13:58.895Z,95
2019-06-18T08:14:58.307Z,95
2019-06-18T08:16:02.628Z,100
2019-06-18T08:16:59.023Z,100
2019-06-18T08:17:58.712Z,100
2019-06-18T08:18:58.253Z,100
2019-06-18T08:19:59.528Z,100
2019-06-18T08:21:02.859Z,100
2019-06-18T08:22:17.922Z,105
2019-06-18T08:22:59.574Z,105
2019-06-18T08:24:13.739Z,105
2019-06-18T08:25:03.441Z,105
2019-06-18T08:26:02.731Z,105
2019-06-18T08:26:58.396Z,105
2019-06-18T08:28:03.001Z,105
2019-06-18T08:28:58.574Z,100
2019-06-18T08:30:03.087Z,100
2019-06-18T08:30:59.028Z,100
2019-06-18T08:32:16.623Z,100
2019-06-18T08:33:02.314Z,100
2019-06-18T08:33:58.820Z,100
2019-06-18T08:34:58.759Z,95
2019-06-18T08:35:58.758Z,95
2019-06-18T08:37:03.066Z,95
2019-06-18T08:37:58.185Z,95
2019-06-18T08:39:03.007Z,95
2019-06-18T08:39:59.066Z,95
2019-06-18T08:40:58.265Z,90
2019-06-18T08:42:02.659Z,90
2019-06-18T08:42:58.246Z,90
2019-06-18T08:44:03.553Z,90
2019-06-18T08:44:58.334Z,90
2019-06-18T08:45:59.121Z,90
2019-06-18T08:47:02.766Z,90
2019-06-18T08:47:58.854Z,90
2019-06-18T08:49:02.766Z,85
2019-06-18T08:49:58.661Z,85
2019-06-18T08:51:07.664Z,85
2019-06-18T08:51:59.122Z,85
2019-06-18T08:52:58.397Z,85
2019-06-18T08:54:13.595Z,85
2019-06-18T08:55:02.563Z,85
2019-06-18T08:56:03.016Z,85
2019-06-18T08:56:58.273Z,85
2019-06-18T08:57:58.669Z,85
2019-06-18T08:59:02.690Z,85
2019-06-18T09:00:03.075Z,85
2019-06-18T09:00:58.596Z,85
2019-06-18T09:01:59.129Z,85
2019-06-18T09:03:00.006Z,85
2019-06-18T09:04:00.399Z,85
2019-06-18T09:04:58.653Z,85
2019-06-18T09:06:03.225Z,85
2019-06-18T09:07:02.421Z,85
2019-06-18T09:07:58.989Z,90
2019-06-18T09:08:59.030Z,90
2019-06-18T09:09:58.859Z,85
2019-06-18T09:10:58.956Z,85
2019-06-18T09:12:00.203Z,85
2019-06-18T09:13:02.881Z,85
2019-06-18T09:13:58.604Z,85
2019-06-18T09:15:03.341Z,85
2019-06-18T09:15:59.165Z,85
2019-06-18T09:17:02.973Z,85
2019-06-18T09:18:00.393Z,85
2019-06-18T09:18:59.032Z,85
2019-06-18T09:20:03.523Z,85
2019-06-18T09:21:18.571Z,85
2019-06-18T09:22:03.134Z,85
2019-06-18T09:23:03.101Z,90
2019-06-18T09:24:16.026Z,90
2019-06-18T09:24:58.642Z,45
2019-06-18T09:26:03.499Z,85
2019-06-18T09:26:58.681Z,90
2019-06-18T09:28:03.644Z,90
2019-06-18T09:28:58.721Z,90
2019-06-18T09:30:03.338Z,90
2019-06-18T09:31:02.376Z,90
2019-06-18T09:31:58.408Z,90
2019-06-18T09:32:58.646Z,90
2019-06-18T09:33:59.371Z,35
2019-06-18T09:34:58.738Z,45
2019-06-18T09:35:58.845Z,25
2019-06-18T09:36:58.693Z,25
2019-06-18T09:37:58.676Z,30
2019-06-18T09:38:58.836Z,50
2019-06-18T09:39:59.099Z,90
2019-06-18T09:40:58.514Z,95
2019-06-18T09:41:58.970Z,30
2019-06-18T09:42:58.732Z,25
2019-06-18T09:44:02.519Z,85
2019-06-18T09:44:58.822Z,35
2019-06-18T09:45:58.833Z,95
2019-06-18T09:46:58.941Z,90
2019-06-18T09:48:03.343Z,25
2019-06-18T09:49:02.866Z,25
2019-06-18T09:49:58.774Z,30
2019-06-18T09:50:58.437Z,90
2019-06-18T09:51:58.876Z,95
2019-06-18T09:52:58.991Z,95
2019-06-18T09:54:09.223Z,95
2019-06-18T09:55:03.237Z,95
2019-06-18T09:56:00.895Z,90
2019-06-18T09:57:03.172Z,90
2019-06-18T09:57:58.685Z,95
2019-06-18T09:58:59.215Z,90
2019-06-18T10:00:02.747Z,90
2019-06-18T10:01:00.788Z,90
2019-06-18T10:01:58.776Z,30
2019-06-18T10:02:59.496Z,30
2019-06-18T10:04:02.700Z,40
2019-06-18T10:05:03.291Z,30
2019-06-18T10:06:06.175Z,30
2019-06-18T10:06:57.869Z,55
2019-06-18T10:08:00.437Z,95
2019-06-18T10:09:02.737Z,45
2019-06-18T10:09:59.305Z,95
2019-06-18T10:11:03.338Z,25
2019-06-18T10:12:05.567Z,25
2019-06-18T10:13:03.282Z,25
2019-06-18T10:14:02.657Z,25
2019-06-18T10:14:58.784Z,25
2019-06-18T10:16:03.227Z,25
2019-06-18T10:17:03.609Z,25
2019-06-18T10:18:03.491Z,95
2019-06-18T10:19:03.420Z,95
2019-06-18T10:20:03.242Z,95
2019-06-18T10:20:58.356Z,95
2019-06-18T10:21:59.522Z,95
2019-06-18T10:23:02.778Z,95
2019-06-18T10:25:03.285Z,95
2019-06-18T10:26:03.366Z,95
2019-06-18T10:26:57.963Z,80
2019-06-18T10:27:58.603Z,95
2019-06-18T10:30:09.002Z,95
2019-06-18T10:30:23.379Z,95
2019-06-18T10:31:23.330Z,45
2019-06-18T10:32:25.498Z,25
2019-06-18T10:33:25.912Z,25
2019-06-18T10:34:23.305Z,25
2019-06-18T10:35:23.561Z,30
2019-06-18T10:36:19.993Z,55
2019-06-18T10:37:20.066Z,100
2019-06-18T10:38:21.249Z,35
2019-06-18T10:39:23.537Z,100
2019-06-18T10:40:23.469Z,95
2019-06-18T10:41:26.555Z,95
2019-06-18T10:42:23.018Z,95
2019-06-18T10:43:22.962Z,95
2019-06-18T10:44:23.114Z,30
2019-06-18T10:45:22.969Z,25
2019-06-18T10:46:23.190Z,30
2019-06-18T10:47:22.619Z,25
2019-06-18T10:48:23.063Z,25
2019-06-18T10:49:30.660Z,25
2019-06-18T10:50:25.254Z,25
2019-06-18T10:51:23.496Z,25
2019-06-18T10:52:26.118Z,95
2019-06-18T10:53:25.570Z,95
2019-06-18T10:54:28.295Z,25
2019-06-18T10:55:23.580Z,25
2019-06-18T10:56:23.241Z,25
2019-06-18T10:57:22.717Z,25
2019-06-18T10:58:26.089Z,25
2019-06-18T10:59:22.332Z,25
2019-06-18T11:00:23.391Z,25
2019-06-18T11:01:22.571Z,30
2019-06-18T11:02:22.813Z,100
2019-06-18T11:03:20.044Z,45
2019-06-18T11:04:21.016Z,50
2019-06-18T11:05:22.799Z,90
2019-06-18T11:06:23.604Z,90
2019-06-18T11:07:23.920Z,90
2019-06-18T11:08:21.590Z,95
2019-06-18T11:09:23.130Z,90
2019-06-18T11:10:22.608Z,90
2019-06-18T11:11:22.459Z,90
2019-06-18T11:12:23.928Z,90
2019-06-18T11:13:23.664Z,90
2019-06-18T11:14:28.639Z,90
2019-06-18T11:15:22.717Z,90
2019-06-18T11:16:25.523Z,70
2019-06-18T11:17:25.781Z,20
2019-06-18T11:18:22.566Z,90
2019-06-18T11:19:23.257Z,65
2019-06-18T11:20:22.711Z,90
2019-06-18T11:21:25.528Z,90
2019-06-18T11:22:26.023Z,90
2019-06-18T11:23:43.699Z,90
2019-06-18T11:24:28.869Z,90
2019-06-18T11:25:23.576Z,90
2019-06-18T11:26:22.934Z,90
2019-06-18T11:27:23.181Z,90
2019-06-18T11:28:25.595Z,90
2019-06-18T11:29:20.276Z,90
2019-06-18T11:30:23.406Z,90
2019-06-18T11:31:23.890Z,90
2019-06-18T11:32:23.227Z,90
2019-06-18T11:33:23.006Z,90
2019-06-18T11:34:22.702Z,90
2019-06-18T11:35:23.595Z,90
2019-06-18T11:36:22.921Z,90
2019-06-18T11:37:20.491Z,90
2019-06-18T11:38:25.280Z,90
2019-06-18T11:39:22.880Z,90
2019-06-18T11:40:20.144Z,90
2019-06-18T11:41:21.297Z,90
2019-06-18T11:42:23.176Z,90
2019-06-18T11:43:21.725Z,90
2019-06-18T11:44:26.036Z,90
2019-06-18T11:45:22.464Z,90
2019-06-18T11:46:22.836Z,90
2019-06-18T11:47:25.688Z,90
2019-06-18T11:48:25.795Z,90
2019-06-18T11:49:26.103Z,95
2019-06-18T11:50:22.912Z,90
2019-06-18T11:51:23.074Z,90
2019-06-18T11:52:43.751Z,90
2019-06-18T11:53:25.419Z,90
2019-06-18T11:54:36.416Z,90
2019-06-18T11:55:25.981Z,35
2019-06-18T11:56:23.356Z,35
2019-06-18T11:57:22.599Z,30
2019-06-18T11:58:20.623Z,35
2019-06-18T11:59:23.106Z,25
2019-06-18T12:00:25.941Z,25
2019-06-18T12:01:25.753Z,90
2019-06-18T12:02:25.616Z,75
2019-06-18T12:03:25.512Z,90
2019-06-18T12:04:22.651Z,90
2019-06-18T12:05:22.949Z,90
2019-06-18T12:06:25.736Z,90
2019-06-18T12:07:20.467Z,90
2019-06-18T12:08:21.379Z,90
2019-06-18T12:09:23.157Z,90
2019-06-18T12:10:22.882Z,90
2019-06-18T12:11:22.726Z,85
2019-06-18T12:12:23.597Z,85
2019-06-18T12:13:23.119Z,85
2019-06-18T12:14:22.911Z,85
2019-06-18T12:15:26.371Z,85
2019-06-18T12:16:22.551Z,85
2019-06-18T12:17:22.504Z,85
2019-06-18T12:18:22.541Z,85
2019-06-18T12:19:25.646Z,85
2019-06-18T12:20:20.357Z,85
2019-06-18T12:21:20.216Z,85
2019-06-18T12:22:21.613Z,85
2019-06-18T12:23:24.710Z,85
2019-06-18T12:24:33.142Z,85
2019-06-18T12:25:22.656Z,85
2019-06-18T12:26:23.110Z,85
2019-06-18T12:27:23.146Z,85
2019-06-18T12:28:25.415Z,85
2019-06-18T12:29:23.234Z,85
2019-06-18T12:30:22.606Z,85
2019-06-18T12:31:22.506Z,85
2019-06-18T12:32:25.702Z,85
2019-06-18T12:33:23.191Z,90
2019-06-18T12:34:26.803Z,90
2019-06-18T12:35:23.446Z,90
2019-06-18T12:36:23.436Z,90
2019-06-18T12:37:22.637Z,90
2019-06-18T12:38:22.750Z,90
2019-06-18T12:39:21.421Z,90
2019-06-18T12:40:23.611Z,90
2019-06-18T12:41:23.748Z,90
2019-06-18T12:42:25.662Z,90
2019-06-18T12:43:25.825Z,85
2019-06-18T12:44:22.968Z,85
2019-06-18T12:45:26.161Z,85
2019-06-18T12:46:25.670Z,85
2019-06-18T12:47:23.452Z,85
2019-06-18T12:48:26.416Z,85
2019-06-18T12:49:22.813Z,85
2019-06-18T12:50:22.681Z,85
2019-06-18T12:51:25.586Z,85
2019-06-18T12:52:23.810Z,85
2019-06-18T12:53:23.516Z,85
2019-06-18T12:54:35.390Z,85
2019-06-18T12:55:27.361Z,85
2019-06-18T12:56:22.727Z,85
2019-06-18T12:57:23.159Z,85
2019-06-18T12:58:23.477Z,85
2019-06-18T12:59:43.746Z,85
2019-06-18T13:00:22.764Z,85
2019-06-18T13:01:23.102Z,85
2019-06-18T13:02:26.205Z,80
2019-06-18T13:03:22.300Z,85
2019-06-18T13:04:26.276Z,85
2019-06-18T13:05:22.791Z,85
2019-06-18T13:06:23.293Z,85
2019-06-18T13:07:22.676Z,85
2019-06-18T13:08:20.326Z,85
2019-06-18T13:09:22.568Z,85
2019-06-18T13:10:25.579Z,85
2019-06-18T13:11:26.008Z,85
2019-06-18T13:12:23.542Z,85
2019-06-18T13:13:23.476Z,85
2019-06-18T13:14:23.235Z,85
2019-06-18T13:15:25.911Z,85
2019-06-18T13:16:22.395Z,85
2019-06-18T13:17:28.670Z,60
2019-06-18T13:18:22.942Z,60
2019-06-18T13:19:25.711Z,85
2019-06-18T13:20:22.834Z,90
2019-06-18T13:21:26.175Z,85
2019-06-18T13:22:25.781Z,85
2019-06-18T13:23:38.313Z,25
2019-06-18T13:24:32.688Z,25
2019-06-18T13:25:25.892Z,30
2019-06-18T13:26:25.434Z,30
2019-06-18T13:27:23.891Z,25
2019-06-18T13:28:25.970Z,25
2019-06-18T13:29:22.625Z,25
2019-06-18T13:30:23.480Z,25
2019-06-18T13:31:22.628Z,20
2019-06-18T13:32:22.729Z,20
2019-06-18T13:33:23.157Z,25
2019-06-18T13:34:26.636Z,25
2019-06-18T13:35:26.390Z,25
2019-06-18T13:36:40.457Z,70
2019-06-18T13:37:25.562Z,40
2019-06-18T13:38:26.368Z,60
2019-06-18T13:39:22.434Z,75
2019-06-18T13:40:24.918Z,70
2019-06-18T13:41:23.478Z,30
2019-06-18T13:42:22.387Z,40
2019-06-18T13:43:22.647Z,60
2019-06-18T13:44:25.956Z,20
2019-06-18T13:45:25.936Z,20
2019-06-18T13:46:23.420Z,25
2019-06-18T13:47:23.154Z,25
2019-06-18T13:48:26.512Z,25
2019-06-18T13:49:25.584Z,25
2019-06-18T13:50:26.071Z,25
2019-06-18T13:51:22.580Z,25
2019-06-18T13:52:22.256Z,25
2019-06-18T13:53:49.340Z,20
2019-06-18T13:54:39.292Z,20
2019-06-18T13:55:26.311Z,20
2019-06-18T13:56:22.651Z,20
2019-06-18T13:57:22.871Z,20
2019-06-18T13:58:24.075Z,20
2019-06-18T13:59:22.968Z,20
2019-06-18T14:00:22.853Z,20
2019-06-18T14:01:25.978Z,20
2019-06-18T14:02:22.842Z,20
2019-06-18T14:03:25.951Z,20
2019-06-18T14:04:25.654Z,20
2019-06-18T14:05:22.646Z,20
2019-06-18T14:06:26.436Z,20
2019-06-18T14:07:23.472Z,20
2019-06-18T14:08:22.860Z,15
2019-06-18T14:09:22.334Z,20
2019-06-18T14:10:22.875Z,65
2019-06-18T14:11:22.769Z,35
2019-06-18T14:12:22.667Z,30
2019-06-18T14:13:23.862Z,20
2019-06-18T14:14:22.616Z,65
2019-06-18T14:15:22.820Z,20
2019-06-18T14:16:23.091Z,55
2019-06-18T14:17:26.212Z,60
2019-06-18T14:18:22.821Z,70
2019-06-18T14:19:25.826Z,70
2019-06-18T14:20:22.636Z,70
2019-06-18T14:21:25.277Z,70
2019-06-18T14:22:22.739Z,70
2019-06-18T14:23:25.679Z,70
2019-06-18T14:24:34.127Z,70
2019-06-18T14:25:25.186Z,70
2019-06-18T14:26:22.420Z,70
2019-06-18T14:27:26.814Z,70
2019-06-18T14:28:22.538Z,70
2019-06-18T14:29:22.563Z,65
2019-06-18T14:30:23.072Z,65
2019-06-18T14:31:22.417Z,65